createdAt,value
2018-02-08T00:02:07.473Z,19.74
2018-02-08T00:04:35.619Z,19.73
2018-02-08T00:07:04.574Z,19.68
2018-02-08T00:09:32.497Z,19.68
2018-02-08T00:12:00.711Z,19.71
2018-02-08T00:14:28.505Z,19.72
2018-02-08T00:16:56.284Z,19.72
2018-02-08T00:19:23.957Z,19.69
2018-02-08T00:21:51.845Z,19.73
2018-02-08T00:24:19.566Z,19.71
2018-02-08T00:26:47.650Z,19.73
2018-02-08T00:29:15.670Z,19.72
2018-02-08T00:31:44.072Z,19.69
2018-02-08T01:48:58.734Z,19.31
2018-02-08T01:51:26.673Z,19.29
2018-02-08T01:53:54.545Z,19.25
2018-02-08T01:56:22.053Z,19.26
2018-02-08T01:58:50.182Z,19.23
2018-02-08T02:01:17.733Z,19.20
2018-02-08T02:03:45.240Z,19.18
2018-02-08T02:06:12.803Z,19.19
2018-02-08T02:40:00.222Z,19.35
2018-02-08T02:42:27.736Z,19.31
2018-02-08T02:44:55.284Z,19.30
2018-02-08T02:47:22.836Z,19.31
2018-02-08T02:49:50.505Z,19.26
2018-02-08T02:52:18.031Z,19.25
2018-02-08T02:54:45.551Z,19.24
2018-02-08T02:57:13.088Z,19.27
2018-02-08T02:59:40.606Z,19.19
2018-02-08T03:02:08.286Z,19.21
2018-02-08T03:04:35.886Z,19.20
2018-02-08T03:07:03.441Z,19.22
2018-02-08T03:09:30.979Z,19.17
2018-02-08T03:11:58.550Z,19.18
2018-02-08T03:14:26.072Z,19.15
2018-02-08T03:16:53.584Z,19.17
2018-02-08T03:19:21.145Z,19.26
2018-02-08T03:21:48.706Z,19.29
2018-02-08T03:24:16.869Z,19.33
2018-02-08T03:26:44.430Z,19.33
2018-02-08T03:29:11.972Z,19.32
2018-02-08T03:31:39.495Z,19.30
2018-02-08T03:34:07.061Z,19.32
2018-02-08T03:36:34.568Z,19.30
2018-02-08T03:39:02.142Z,19.30
2018-02-08T03:41:29.639Z,19.28
2018-02-08T03:43:57.167Z,19.25
2018-02-08T03:46:24.729Z,19.31
2018-02-08T03:48:52.227Z,19.24
2018-02-08T03:51:19.759Z,19.24
2018-02-08T03:53:47.316Z,19.23
2018-02-08T03:56:14.854Z,19.18
2018-02-08T03:58:42.397Z,19.14
2018-02-08T04:01:09.927Z,19.18
2018-02-08T04:03:37.471Z,19.13
2018-02-08T04:06:05.001Z,19.04
2018-02-08T04:08:32.568Z,19.08
2018-02-08T04:11:00.091Z,19.05
2018-02-08T04:13:27.653Z,19.04
2018-02-08T04:15:55.166Z,19.05
2018-02-08T04:18:22.729Z,19.11
2018-02-08T04:20:50.242Z,19.12
2018-02-08T04:23:17.740Z,19.18
2018-02-08T04:25:45.284Z,19.21
2018-02-08T04:28:12.796Z,19.22
2018-02-08T04:30:40.409Z,19.22
2018-02-08T04:33:07.907Z,19.27
2018-02-08T04:35:35.443Z,19.26
2018-02-08T04:38:02.993Z,19.27
2018-02-08T04:40:42.339Z,19.27
2018-02-08T04:43:21.612Z,19.26
2018-02-08T04:46:00.769Z,19.26
2018-02-08T04:48:28.316Z,19.18
2018-02-08T04:50:55.837Z,19.16
2018-02-08T04:53:23.389Z,19.18
2018-02-08T04:55:50.947Z,19.14
2018-02-08T04:58:18.502Z,19.08
2018-02-08T05:00:46.984Z,19.13
2018-02-08T05:03:14.510Z,19.10
2018-02-08T05:05:42.048Z,19.08
2018-02-08T05:08:09.589Z,19.11
2018-02-08T05:10:37.093Z,19.07
2018-02-08T05:13:04.645Z,19.03
2018-02-08T05:15:32.165Z,19.01
2018-02-08T05:17:59.679Z,19.02
2018-02-08T05:20:27.254Z,18.95
2018-02-08T05:22:54.781Z,19.02
2018-02-08T05:25:22.283Z,19.06
2018-02-08T05:27:49.843Z,19.10
2018-02-08T05:30:17.352Z,19.09
2018-02-08T05:32:44.912Z,19.12
2018-02-08T05:35:12.420Z,19.13
2018-02-08T05:37:39.981Z,19.15
2018-02-08T05:40:07.538Z,19.14
2018-02-08T05:42:35.088Z,19.12
2018-02-08T05:45:02.613Z,19.16
2018-02-08T05:47:30.166Z,19.15
2018-02-08T05:49:57.680Z,19.19
2018-02-08T05:52:25.220Z,19.18
2018-02-08T05:54:52.773Z,19.20
2018-02-08T05:57:20.301Z,19.18
2018-02-08T05:59:47.874Z,19.14
2018-02-08T06:02:15.442Z,19.12
2018-02-08T06:04:42.944Z,19.09
2018-02-08T06:07:10.483Z,19.08
2018-02-08T06:09:38.031Z,19.08
2018-02-08T06:12:05.550Z,19.04
2018-02-08T06:14:33.158Z,18.95
2018-02-08T06:17:00.722Z,19.00
2018-02-08T06:19:28.231Z,18.98
2018-02-08T06:21:55.806Z,18.92
2018-02-08T06:24:23.325Z,18.88
2018-02-08T06:26:50.886Z,18.95
2018-02-08T06:29:18.450Z,19.04
2018-02-08T06:31:46.006Z,19.05
2018-02-08T06:34:13.552Z,19.09
2018-02-08T06:36:41.112Z,19.06
2018-02-08T06:39:08.643Z,19.02
2018-02-08T06:41:36.182Z,19.07
2018-02-08T06:44:03.707Z,19.06
2018-02-08T06:46:31.247Z,19.07
2018-02-08T06:48:58.810Z,19.09
2018-02-08T06:51:26.315Z,19.10
2018-02-08T06:53:53.839Z,19.09
2018-02-08T06:56:21.385Z,19.10
2018-02-08T06:58:48.911Z,19.08
2018-02-08T07:01:17.112Z,19.08
2018-02-08T07:03:44.716Z,19.04
2018-02-08T07:06:12.320Z,19.05
2018-02-08T07:08:39.846Z,19.03
2018-02-08T07:11:07.376Z,19.01
2018-02-08T07:13:34.935Z,18.94
2018-02-08T07:16:02.480Z,18.95
2018-02-08T07:18:30.028Z,18.94
2018-02-08T07:20:57.575Z,18.88
2018-02-08T07:23:25.312Z,18.84
2018-02-08T07:25:52.878Z,18.79
2018-02-08T07:28:20.387Z,18.85
2018-02-08T07:30:47.949Z,18.81
2018-02-08T07:33:15.798Z,18.78
2018-02-08T07:35:43.367Z,18.75
2018-02-08T07:38:10.881Z,18.77
2018-02-08T07:40:38.405Z,18.81
2018-02-08T07:43:05.953Z,18.85
2018-02-08T07:45:33.460Z,18.90
2018-02-08T07:48:01.017Z,18.97
2018-02-08T07:50:28.566Z,19.02
2018-02-08T07:52:56.104Z,19.05
2018-02-08T07:55:23.652Z,19.11
2018-02-08T07:57:51.226Z,19.13
2018-02-08T08:00:18.744Z,19.14
2018-02-08T08:02:47.123Z,19.15
2018-02-08T08:05:14.678Z,19.14
2018-02-08T08:07:42.188Z,19.15
2018-02-08T08:10:09.732Z,19.12
2018-02-08T08:12:37.280Z,19.13
2018-02-08T08:17:57.523Z,19.10
2018-02-08T08:20:25.049Z,19.03
2018-02-08T08:22:52.597Z,18.98
2018-02-08T08:25:20.140Z,19.06
2018-02-08T08:27:47.692Z,19.08
2018-02-08T08:30:15.200Z,19.02
2018-02-08T08:32:42.773Z,18.90
2018-02-08T08:35:10.405Z,18.75
2018-02-08T08:37:37.980Z,18.93
2018-02-08T08:40:05.510Z,18.95
2018-02-08T08:42:33.126Z,18.65
2018-02-08T08:45:00.676Z,18.73
2018-02-08T08:47:28.261Z,18.74
2018-02-08T08:49:55.822Z,18.80
2018-02-08T08:52:23.367Z,18.88
2018-02-08T08:54:51.005Z,19.04
2018-02-08T08:57:18.642Z,19.18
2018-02-08T08:59:47.160Z,19.29
2018-02-08T09:02:14.723Z,19.34
2018-02-08T09:04:42.231Z,19.37
2018-02-08T09:07:09.804Z,19.43
2018-02-08T09:09:37.376Z,19.45
2018-02-08T09:12:06.764Z,19.46
2018-02-08T09:14:34.630Z,19.49
2018-02-08T09:17:02.437Z,19.58
2018-02-08T09:19:30.278Z,19.65
2018-02-08T09:21:57.980Z,19.60
2018-02-08T09:24:25.535Z,19.63
2018-02-08T09:26:53.283Z,19.62
2018-02-08T09:29:20.992Z,19.58
2018-02-08T09:31:48.797Z,19.61
2018-02-08T09:34:17.617Z,19.66
2018-02-08T09:36:45.296Z,19.66
2018-02-08T09:39:12.948Z,19.65
2018-02-08T09:41:40.690Z,19.64
2018-02-08T09:44:08.394Z,19.62
2018-02-08T09:46:36.333Z,19.59
2018-02-08T09:49:04.115Z,19.55
2018-02-08T09:51:31.787Z,19.75
2018-02-08T09:53:59.961Z,19.59
2018-02-08T09:56:28.083Z,19.64
2018-02-08T09:58:55.708Z,19.67
2018-02-08T10:01:23.465Z,19.71
2018-02-08T10:03:52.121Z,19.80
2018-02-08T10:06:19.832Z,19.72
2018-02-08T10:08:47.458Z,19.79
2018-02-08T10:11:15.327Z,19.88
2018-02-08T10:13:43.136Z,20.05
2018-02-08T10:16:11.179Z,20.32
2018-02-08T10:18:39.137Z,20.42
2018-02-08T10:21:06.978Z,20.36
2018-02-08T10:23:35.378Z,20.49
2018-02-08T10:26:04.197Z,20.52
2018-02-08T10:28:32.223Z,20.51
2018-02-08T10:30:59.846Z,20.50
2018-02-08T10:33:27.826Z,20.43
2018-02-08T10:35:55.738Z,20.36
2018-02-08T10:38:23.853Z,20.30
2018-02-08T10:40:51.652Z,20.36
2018-02-08T10:43:19.908Z,20.35
2018-02-08T10:45:47.721Z,20.37
2018-02-08T10:48:16.718Z,20.33
2018-02-08T10:50:44.486Z,20.33
2018-02-08T10:53:12.375Z,20.34
2018-02-08T10:55:40.225Z,20.36
2018-02-08T10:58:07.857Z,20.38
2018-02-08T11:00:35.404Z,20.41
2018-02-08T11:03:03.997Z,20.41
2018-02-08T11:05:31.681Z,20.47
2018-02-08T11:07:59.797Z,20.26
2018-02-08T11:10:27.571Z,20.24
2018-02-08T11:12:55.289Z,20.18
2018-02-08T11:15:22.833Z,20.25
2018-02-08T11:17:50.366Z,20.25
2018-02-08T11:20:17.933Z,20.30
2018-02-08T11:22:45.479Z,20.25
2018-02-08T11:25:12.997Z,20.37
2018-02-08T11:27:40.552Z,20.29
2018-02-08T11:30:08.075Z,20.30
2018-02-08T11:32:35.601Z,20.28
2018-02-08T11:35:03.500Z,20.43
2018-02-08T11:37:31.235Z,20.36
2018-02-08T11:39:59.142Z,20.41
2018-02-08T11:42:26.917Z,20.42
2018-02-08T11:44:54.796Z,20.46
2018-02-08T11:47:22.545Z,20.50
2018-02-08T11:49:50.411Z,20.53
2018-02-08T11:52:18.290Z,20.56
2018-02-08T11:54:46.172Z,20.58
2018-02-08T11:57:14.069Z,20.60
2018-02-08T11:59:41.942Z,20.90
2018-02-08T12:02:09.890Z,20.80
2018-02-08T12:04:37.686Z,20.73
2018-02-08T12:07:05.502Z,20.70
2018-02-08T12:09:33.425Z,20.73
2018-02-08T12:12:01.321Z,20.70
2018-02-08T12:14:29.246Z,20.73
2018-02-08T12:16:57.065Z,20.65
2018-02-08T12:19:24.929Z,20.62
2018-02-08T12:21:52.824Z,20.64
2018-02-08T12:24:20.628Z,20.69
2018-02-08T12:26:48.544Z,20.66
2018-02-08T12:29:16.387Z,20.74
2018-02-08T12:31:44.333Z,20.63
2018-02-08T12:34:12.121Z,20.65
2018-02-08T12:36:40.093Z,20.46
2018-02-08T12:39:07.634Z,20.13
2018-02-08T12:41:35.209Z,20.03
2018-02-08T12:44:02.755Z,19.96
2018-02-08T12:46:30.320Z,19.95
2018-02-08T12:48:57.887Z,20.03
2018-02-08T12:51:25.722Z,19.93
2018-02-08T12:53:53.236Z,20.06
2018-02-08T12:56:20.780Z,20.17
2018-02-08T12:58:48.348Z,20.01
2018-02-08T13:01:16.042Z,19.91
2018-02-08T13:03:43.900Z,19.89
2018-02-08T13:06:11.474Z,19.90
2018-02-08T13:08:39.016Z,19.99
2018-02-08T13:11:06.803Z,20.02
2018-02-08T13:13:34.371Z,19.98
2018-02-08T13:16:01.912Z,19.96
2018-02-08T13:18:29.505Z,20.02
2018-02-08T13:20:57.314Z,20.06
2018-02-08T13:23:25.175Z,20.02
2018-02-08T13:25:52.732Z,20.03
2018-02-08T13:28:20.285Z,20.08
2018-02-08T13:30:47.800Z,20.10
2018-02-08T13:33:15.371Z,20.08
2018-02-08T13:35:43.232Z,20.13
2018-02-08T13:38:11.205Z,20.13
2018-02-08T13:40:51.972Z,20.22
2018-02-08T13:43:19.913Z,20.18
2018-02-08T13:45:47.947Z,20.15
2018-02-08T13:51:14.305Z,20.07
2018-02-08T13:56:52.888Z,20.07
2018-02-08T14:02:19.514Z,20.00
2018-02-08T14:04:51.227Z,20.11
2018-02-08T14:07:19.138Z,20.11
2018-02-08T14:09:46.660Z,20.15
2018-02-08T14:12:14.181Z,20.11
2018-02-08T14:14:41.895Z,20.04
2018-02-08T14:17:09.427Z,20.03
2018-02-08T14:19:37.002Z,19.99
2018-02-08T14:22:04.567Z,19.98
2018-02-08T14:24:32.057Z,19.96
2018-02-08T14:26:59.662Z,19.92
2018-02-08T14:29:27.453Z,19.89
2018-02-08T14:31:56.867Z,20.00
2018-02-08T14:34:25.893Z,20.04
2018-02-08T14:36:54.048Z,20.10
2018-02-08T14:39:21.881Z,20.14
2018-02-08T14:41:50.026Z,20.09
2018-02-08T14:44:17.574Z,20.08
2018-02-08T14:46:45.406Z,20.10
2018-02-08T14:49:13.368Z,20.10
2018-02-08T14:51:41.129Z,20.10
2018-02-08T14:54:09.145Z,20.06
2018-02-08T14:56:36.989Z,20.08
2018-02-08T14:59:04.657Z,19.99
2018-02-08T15:01:32.575Z,19.99
2018-02-08T15:04:00.894Z,20.07
2018-02-08T15:06:28.977Z,19.97
2018-02-08T15:08:57.404Z,19.86
2018-02-08T15:11:25.847Z,19.84
2018-02-08T15:13:53.802Z,19.91
2018-02-08T15:16:21.593Z,19.96
2018-02-08T15:18:49.581Z,19.82
2018-02-08T15:21:17.326Z,19.78
2018-02-08T15:23:45.105Z,19.87
2018-02-08T15:26:13.055Z,19.74
2018-02-08T15:28:41.105Z,19.66
2018-02-08T15:31:09.020Z,19.69
2018-02-08T15:33:37.097Z,19.72
2018-02-08T15:36:04.736Z,19.75
2018-02-08T15:38:32.247Z,19.74
2018-02-08T15:40:59.818Z,19.82
2018-02-08T15:43:27.328Z,19.87
2018-02-08T15:45:55.689Z,20.02
2018-02-08T15:48:23.295Z,19.81
2018-02-08T15:50:50.860Z,19.83
2018-02-08T15:53:18.400Z,19.84
2018-02-08T15:55:45.923Z,19.83
2018-02-08T15:58:13.482Z,19.76
2018-02-08T16:00:40.990Z,19.72
2018-02-08T16:03:08.569Z,19.66
2018-02-08T16:05:36.090Z,19.64
2018-02-08T16:08:03.641Z,19.58
2018-02-08T16:10:31.170Z,19.54
2018-02-08T16:12:58.695Z,19.50
2018-02-08T16:15:26.249Z,19.47
2018-02-08T16:17:53.814Z,19.44
2018-02-08T16:20:21.336Z,19.41
2018-02-08T16:22:49.235Z,19.35
2018-02-08T16:25:17.089Z,19.38
2018-02-08T16:27:44.934Z,19.49
2018-02-08T16:30:12.957Z,19.52
2018-02-08T16:32:40.500Z,19.55
2018-02-08T16:35:08.305Z,19.62
2018-02-08T16:37:35.868Z,19.65
2018-02-08T16:40:04.160Z,19.66
2018-02-08T16:42:32.202Z,19.60
2018-02-08T16:45:00.063Z,19.60
2018-02-08T16:47:28.085Z,19.59
2018-02-08T16:49:55.610Z,19.58
2018-02-08T16:52:23.184Z,19.51
2018-02-08T16:54:50.694Z,19.65
2018-02-08T16:57:18.249Z,19.69
2018-02-08T16:59:45.817Z,19.75
2018-02-08T17:02:13.382Z,19.84
2018-02-08T17:04:40.968Z,19.87
2018-02-08T17:07:08.493Z,19.90
2018-02-08T17:09:36.027Z,19.90
2018-02-08T17:12:03.583Z,19.69
2018-02-08T17:14:31.097Z,19.53
2018-02-08T17:16:58.602Z,19.46
2018-02-08T17:19:26.239Z,19.44
2018-02-08T17:21:53.759Z,19.37
2018-02-08T17:24:21.263Z,19.33
2018-02-08T17:26:48.955Z,19.38
2018-02-08T17:29:16.465Z,19.37
2018-02-08T17:31:44.023Z,19.40
2018-02-08T17:34:12.494Z,19.40
2018-02-08T17:36:40.036Z,19.43
2018-02-08T17:39:07.590Z,19.47
2018-02-08T17:41:35.554Z,19.31
2018-02-08T17:44:03.189Z,19.38
2018-02-08T17:46:30.753Z,19.44
2018-02-08T17:48:58.315Z,19.43
2018-02-08T17:51:25.917Z,19.43
2018-02-08T17:53:53.520Z,19.27
2018-02-08T17:56:21.046Z,19.29
2018-02-08T17:58:48.593Z,19.32
2018-02-08T18:01:16.138Z,19.22
2018-02-08T18:03:43.689Z,19.17
2018-02-08T18:06:11.222Z,19.14
2018-02-08T18:08:38.791Z,19.21
2018-02-08T18:11:06.319Z,19.26
2018-02-08T18:13:33.864Z,19.29
2018-02-08T18:16:01.390Z,19.34
2018-02-08T18:18:29.109Z,19.27
2018-02-08T18:20:56.630Z,19.48
2018-02-08T18:23:24.203Z,19.34
2018-02-08T18:25:51.762Z,19.34
2018-02-08T18:28:19.280Z,19.34
2018-02-08T18:30:46.827Z,19.31
2018-02-08T18:33:14.331Z,19.13
2018-02-08T18:35:41.917Z,19.36
2018-02-08T18:38:09.524Z,19.33
2018-02-08T18:40:37.308Z,19.29
2018-02-08T18:43:04.956Z,19.31
2018-02-08T18:45:32.462Z,19.39
2018-02-08T18:47:59.981Z,19.28
2018-02-08T18:50:27.531Z,19.19
2018-02-08T18:52:55.744Z,19.25
2018-02-08T18:55:23.314Z,19.17
2018-02-08T18:57:50.829Z,19.15
2018-02-08T19:00:18.387Z,19.07
2018-02-08T19:02:45.918Z,19.14
2018-02-08T19:05:13.504Z,19.19
2018-02-08T19:07:41.043Z,19.20
2018-02-08T19:10:08.602Z,19.16
2018-02-08T19:12:36.129Z,19.15
2018-02-08T19:15:03.693Z,19.27
2018-02-08T19:17:31.263Z,19.27
2018-02-08T19:19:58.786Z,19.31
2018-02-08T19:22:26.337Z,19.33
2018-02-08T19:24:53.914Z,19.34
2018-02-08T19:27:21.457Z,19.46
2018-02-08T19:29:48.980Z,19.45
2018-02-08T19:32:16.544Z,19.47
2018-02-08T19:34:44.070Z,19.49
2018-02-08T19:37:11.626Z,19.46
2018-02-08T19:39:39.169Z,19.50
2018-02-08T19:42:06.738Z,19.66
2018-02-08T19:44:34.279Z,19.44
2018-02-08T19:47:01.829Z,19.39
2018-02-08T19:49:29.386Z,19.52
2018-02-08T19:51:56.943Z,19.39
2018-02-08T19:54:24.532Z,19.25
2018-02-08T19:56:52.076Z,19.28
2018-02-08T19:59:19.643Z,19.29
2018-02-08T20:01:47.201Z,19.51
2018-02-08T20:04:14.879Z,19.33
2018-02-08T20:06:42.389Z,19.39
2018-02-08T20:09:09.927Z,19.42
2018-02-08T20:11:37.431Z,19.45
2018-02-08T20:17:01.155Z,19.40
2018-02-08T20:19:28.695Z,19.32
2018-02-08T20:21:56.241Z,19.41
2018-02-08T20:24:23.769Z,19.38
2018-02-08T20:26:51.322Z,19.36
2018-02-08T20:29:18.878Z,19.45
2018-02-08T20:31:46.403Z,19.38
2018-02-08T20:34:13.954Z,19.33
2018-02-08T20:36:41.525Z,19.26
2018-02-08T20:39:09.051Z,19.26
2018-02-08T20:41:36.610Z,19.24
2018-02-08T20:44:04.130Z,19.25
2018-02-08T20:46:31.684Z,19.23
2018-02-08T20:48:59.224Z,19.24
2018-02-08T20:51:26.810Z,19.24
2018-02-08T20:59:40.061Z,19.28
2018-02-08T21:02:07.610Z,19.25
2018-02-08T21:04:35.273Z,19.24
2018-02-08T21:07:02.859Z,19.27
2018-02-08T21:09:30.432Z,19.22
2018-02-08T21:11:58.144Z,19.20
2018-02-08T21:14:26.023Z,19.16
2018-02-08T21:16:53.867Z,19.14
2018-02-08T21:19:21.526Z,19.08
2018-02-08T21:21:49.151Z,19.06
2018-02-08T21:24:16.778Z,18.99
2018-02-08T21:26:44.332Z,19.01
2018-02-08T21:29:11.898Z,19.04
2018-02-08T21:31:39.521Z,19.03
2018-02-08T21:34:07.097Z,19.09
2018-02-08T21:36:34.634Z,19.12
2018-02-08T21:39:02.199Z,19.10
2018-02-08T21:41:29.813Z,19.13
2018-02-08T21:43:57.390Z,19.11
2018-02-08T21:46:24.955Z,19.11
2018-02-08T21:48:52.527Z,19.11
2018-02-08T21:51:20.073Z,19.11
2018-02-08T21:53:47.717Z,19.13
2018-02-08T21:56:15.299Z,19.12
2018-02-08T21:58:42.898Z,19.11
2018-02-08T22:01:10.490Z,19.12
2018-02-08T22:03:38.086Z,19.10
2018-02-08T22:06:05.697Z,19.09
2018-02-08T22:08:33.272Z,19.02
2018-02-08T22:11:00.869Z,19.02
2018-02-08T22:13:28.479Z,19.11
2018-02-08T22:15:56.547Z,19.13
2018-02-08T22:18:24.151Z,19.08
2018-02-08T22:20:51.744Z,19.07
2018-02-08T22:23:19.330Z,19.03
2018-02-08T22:25:46.936Z,19.05
2018-02-08T22:28:14.527Z,19.01
2018-02-08T22:30:42.069Z,19.02
2018-02-08T23:04:48.072Z,18.98
2018-02-08T23:07:15.582Z,18.97
2018-02-08T23:09:43.155Z,18.98
2018-02-08T23:12:10.686Z,18.93
2018-02-08T23:14:38.200Z,18.91
2018-02-08T23:17:05.767Z,18.94
2018-02-08T23:19:33.293Z,18.92
2018-02-08T23:22:00.860Z,18.86
2018-02-08T23:24:28.440Z,18.90
2018-02-08T23:26:56.293Z,18.87
2018-02-08T23:29:23.856Z,18.86
2018-02-08T23:31:51.400Z,18.87
2018-02-08T23:34:18.970Z,18.88
2018-02-08T23:36:46.489Z,18.51
2018-02-08T23:39:13.995Z,18.83
2018-02-08T23:41:41.566Z,18.86
2018-02-08T23:44:09.083Z,18.83
2018-02-08T23:46:36.609Z,18.86
2018-02-08T23:49:04.177Z,18.87
2018-02-08T23:51:31.702Z,18.82
2018-02-08T23:53:59.265Z,18.82
2018-02-08T23:56:26.799Z,18.82
2018-02-08T23:58:54.315Z,18.83
